sensor_id;sensor_type;location;lat;lon;timestamp;P1;durP1;ratioP1;P2;durP2;ratioP2
6823;SDS011;58633;49.470;11.004;2024-02-26T00:00:35;7.23;;;3.90;;
6823;SDS011;58633;49.470;11.004;2024-02-26T00:03:01;5.37;;;3.80;;
6823;SDS011;58633;49.470;11.004;2024-02-26T00:05:26;5.47;;;3.90;;
6823;SDS011;58633;49.470;11.004;2024-02-26T00:07:52;5.67;;;4.00;;
6823;SDS011;58633;49.470;11.004;2024-02-26T00:10:19;5.50;;;3.90;;
6823;SDS011;58633;49.470;11.004;2024-02-26T00:12:45;5.70;;;4.00;;
6823;SDS011;58633;49.470;11.004;2024-02-26T00:15:11;5.73;;;3.80;;
6823;SDS011;58633;49.470;11.004;2024-02-26T00:17:37;5.03;;;3.87;;
6823;SDS011;58633;49.470;11.004;2024-02-26T00:20:03;6.67;;;3.90;;
6823;SDS011;58633;49.470;11.004;2024-02-26T00:22:33;5.50;;;4.20;;
6823;SDS011;58633;49.470;11.004;2024-02-26T00:24:58;5.97;;;3.70;;
6823;SDS011;58633;49.470;11.004;2024-02-26T00:27:24;6.23;;;3.60;;
6823;SDS011;58633;49.470;11.004;2024-02-26T00:29:50;5.20;;;3.50;;
6823;SDS011;58633;49.470;11.004;2024-02-26T00:32:15;6.03;;;3.70;;
6823;SDS011;58633;49.470;11.004;2024-02-26T00:34:41;3.37;;;3.07;;
6823;SDS011;58633;49.470;11.004;2024-02-26T00:37:06;5.87;;;3.40;;
6823;SDS011;58633;49.470;11.004;2024-02-26T00:39:32;5.13;;;3.60;;
6823;SDS011;58633;49.470;11.004;2024-02-26T00:41:57;6.57;;;3.93;;
6823;SDS011;58633;49.470;11.004;2024-02-26T00:44:23;4.93;;;3.87;;
6823;SDS011;58633;49.470;11.004;2024-02-26T00:46:48;7.03;;;4.10;;
6823;SDS011;58633;49.470;11.004;2024-02-26T00:49:14;6.47;;;3.90;;
6823;SDS011;58633;49.470;11.004;2024-02-26T00:51:40;6.67;;;4.30;;
6823;SDS011;58633;49.470;11.004;2024-02-26T00:54:05;5.77;;;4.23;;
6823;SDS011;58633;49.470;11.004;2024-02-26T00:56:31;6.13;;;3.80;;
6823;SDS011;58633;49.470;11.004;2024-02-26T00:58:56;7.00;;;3.67;;
6823;SDS011;58633;49.470;11.004;2024-02-26T01:01:22;5.37;;;3.90;;
6823;SDS011;58633;49.470;11.004;2024-02-26T01:03:47;5.53;;;3.90;;
6823;SDS011;58633;49.470;11.004;2024-02-26T01:06:13;5.43;;;4.00;;
6823;SDS011;58633;49.470;11.004;2024-02-26T01:08:39;5.90;;;4.30;;
6823;SDS011;58633;49.470;11.004;2024-02-26T01:11:04;6.03;;;4.17;;
6823;SDS011;58633;49.470;11.004;2024-02-26T01:13:30;7.37;;;4.30;;
6823;SDS011;58633;49.470;11.004;2024-02-26T01:15:55;7.90;;;4.17;;
6823;SDS011;58633;49.470;11.004;2024-02-26T01:18:21;6.97;;;4.57;;
6823;SDS011;58633;49.470;11.004;2024-02-26T01:20:47;6.17;;;4.63;;
6823;SDS011;58633;49.470;11.004;2024-02-26T01:23:12;7.13;;;4.70;;
6823;SDS011;58633;49.470;11.004;2024-02-26T01:25:38;7.73;;;4.27;;
6823;SDS011;58633;49.470;11.004;2024-02-26T01:28:04;6.37;;;4.40;;
6823;SDS011;58633;49.470;11.004;2024-02-26T01:30:30;7.40;;;4.30;;
6823;SDS011;58633;49.470;11.004;2024-02-26T01:32:56;7.40;;;4.53;;
6823;SDS011;58633;49.470;11.004;2024-02-26T01:35:22;8.10;;;4.90;;
6823;SDS011;58633;49.470;11.004;2024-02-26T01:37:48;6.73;;;4.70;;
6823;SDS011;58633;49.470;11.004;2024-02-26T01:40:13;7.40;;;5.40;;
6823;SDS011;58633;49.470;11.004;2024-02-26T01:42:44;7.53;;;4.67;;
6823;SDS011;58633;49.470;11.004;2024-02-26T01:45:16;8.77;;;5.10;;
6823;SDS011;58633;49.470;11.004;2024-02-26T01:47:50;8.80;;;5.20;;
6823;SDS011;58633;49.470;11.004;2024-02-26T01:50:16;8.57;;;4.97;;
6823;SDS011;58633;49.470;11.004;2024-02-26T01:52:43;8.47;;;5.20;;
6823;SDS011;58633;49.470;11.004;2024-02-26T01:55:11;8.00;;;5.37;;
6823;SDS011;58633;49.470;11.004;2024-02-26T01:57:39;8.17;;;5.30;;
6823;SDS011;58633;49.470;11.004;2024-02-26T02:00:06;8.60;;;5.60;;
6823;SDS011;58633;49.470;11.004;2024-02-26T02:02:32;8.77;;;5.63;;
6823;SDS011;58633;49.470;11.004;2024-02-26T02:04:59;8.70;;;5.67;;
6823;SDS011;58633;49.470;11.004;2024-02-26T02:07:26;7.67;;;5.10;;
6823;SDS011;58633;49.470;11.004;2024-02-26T02:09:52;8.77;;;5.40;;
6823;SDS011;58633;49.470;11.004;2024-02-26T02:12:18;10.13;;;5.47;;
6823;SDS011;58633;49.470;11.004;2024-02-26T02:14:44;8.63;;;4.97;;
6823;SDS011;58633;49.470;11.004;2024-02-26T02:17:10;7.70;;;4.70;;
6823;SDS011;58633;49.470;11.004;2024-02-26T02:19:35;8.63;;;5.17;;
6823;SDS011;58633;49.470;11.004;2024-02-26T02:22:01;8.23;;;5.40;;
6823;SDS011;58633;49.470;11.004;2024-02-26T02:24:27;10.13;;;5.53;;
6823;SDS011;58633;49.470;11.004;2024-02-26T02:26:53;8.17;;;5.10;;
6823;SDS011;58633;49.470;11.004;2024-02-26T02:29:18;11.00;;;5.13;;
6823;SDS011;58633;49.470;11.004;2024-02-26T02:31:44;9.93;;;5.30;;
6823;SDS011;58633;49.470;11.004;2024-02-26T02:34:10;7.83;;;5.10;;
6823;SDS011;58633;49.470;11.004;2024-02-26T02:36:47;8.20;;;5.13;;
6823;SDS011;58633;49.470;11.004;2024-02-26T02:39:15;10.10;;;5.20;;
6823;SDS011;58633;49.470;11.004;2024-02-26T02:41:40;8.63;;;5.23;;
6823;SDS011;58633;49.470;11.004;2024-02-26T02:44:06;9.77;;;5.83;;
6823;SDS011;58633;49.470;11.004;2024-02-26T02:46:31;7.40;;;5.43;;
6823;SDS011;58633;49.470;11.004;2024-02-26T02:48:58;9.90;;;5.40;;
6823;SDS011;58633;49.470;11.004;2024-02-26T02:51:24;10.03;;;5.53;;
6823;SDS011;58633;49.470;11.004;2024-02-26T02:53:49;9.00;;;5.63;;
6823;SDS011;58633;49.470;11.004;2024-02-26T02:56:15;7.80;;;5.20;;
6823;SDS011;58633;49.470;11.004;2024-02-26T02:58:40;9.83;;;5.40;;
6823;SDS011;58633;49.470;11.004;2024-02-26T03:01:06;8.80;;;5.37;;
6823;SDS011;58633;49.470;11.004;2024-02-26T03:03:31;8.93;;;5.27;;
6823;SDS011;58633;49.470;11.004;2024-02-26T03:05:57;7.87;;;5.13;;
6823;SDS011;58633;49.470;11.004;2024-02-26T03:08:23;9.60;;;5.80;;
6823;SDS011;58633;49.470;11.004;2024-02-26T03:10:50;6.90;;;5.10;;
6823;SDS011;58633;49.470;11.004;2024-02-26T03:13:16;10.70;;;6.50;;
6823;SDS011;58633;49.470;11.004;2024-02-26T03:15:42;9.47;;;6.03;;
6823;SDS011;58633;49.470;11.004;2024-02-26T03:18:08;8.97;;;5.90;;
6823;SDS011;58633;49.470;11.004;2024-02-26T03:20:33;11.60;;;6.27;;
6823;SDS011;58633;49.470;11.004;2024-02-26T03:22:59;9.10;;;5.70;;
6823;SDS011;58633;49.470;11.004;2024-02-26T03:25:24;9.17;;;5.47;;
6823;SDS011;58633;49.470;11.004;2024-02-26T03:27:50;10.90;;;6.50;;
6823;SDS011;58633;49.470;11.004;2024-02-26T03:30:15;10.23;;;6.07;;
6823;SDS011;58633;49.470;11.004;2024-02-26T03:32:41;9.67;;;5.50;;
6823;SDS011;58633;49.470;11.004;2024-02-26T03:35:06;9.70;;;5.40;;
6823;SDS011;58633;49.470;11.004;2024-02-26T03:37:33;8.97;;;5.53;;
6823;SDS011;58633;49.470;11.004;2024-02-26T03:39:58;9.10;;;5.90;;
6823;SDS011;58633;49.470;11.004;2024-02-26T03:42:27;9.83;;;5.83;;
6823;SDS011;58633;49.470;11.004;2024-02-26T03:44:52;10.17;;;5.30;;
6823;SDS011;58633;49.470;11.004;2024-02-26T03:47:18;9.00;;;5.37;;
6823;SDS011;58633;49.470;11.004;2024-02-26T03:49:44;9.27;;;5.50;;
6823;SDS011;58633;49.470;11.004;2024-02-26T03:52:09;8.60;;;5.30;;
6823;SDS011;58633;49.470;11.004;2024-02-26T03:54:35;11.00;;;5.70;;
6823;SDS011;58633;49.470;11.004;2024-02-26T03:57:00;7.73;;;5.50;;
6823;SDS011;58633;49.470;11.004;2024-02-26T03:59:26;10.53;;;5.20;;
6823;SDS011;58633;49.470;11.004;2024-02-26T04:01:52;9.27;;;5.30;;
6823;SDS011;58633;49.470;11.004;2024-02-26T04:04:18;9.67;;;5.20;;
6823;SDS011;58633;49.470;11.004;2024-02-26T04:06:46;8.27;;;5.10;;
6823;SDS011;58633;49.470;11.004;2024-02-26T04:09:15;8.20;;;5.33;;
6823;SDS011;58633;49.470;11.004;2024-02-26T04:11:41;9.57;;;5.43;;
6823;SDS011;58633;49.470;11.004;2024-02-26T04:14:08;8.47;;;5.27;;
6823;SDS011;58633;49.470;11.004;2024-02-26T04:16:34;8.40;;;5.53;;
6823;SDS011;58633;49.470;11.004;2024-02-26T04:19:00;8.10;;;5.10;;
6823;SDS011;58633;49.470;11.004;2024-02-26T04:21:26;10.17;;;5.97;;
6823;SDS011;58633;49.470;11.004;2024-02-26T04:23:52;9.30;;;5.23;;
6823;SDS011;58633;49.470;11.004;2024-02-26T04:26:20;8.70;;;5.73;;
6823;SDS011;58633;49.470;11.004;2024-02-26T04:28:46;9.53;;;5.47;;
6823;SDS011;58633;49.470;11.004;2024-02-26T04:31:12;9.93;;;5.37;;
6823;SDS011;58633;49.470;11.004;2024-02-26T04:33:38;10.07;;;5.97;;
6823;SDS011;58633;49.470;11.004;2024-02-26T04:36:04;10.60;;;6.27;;
6823;SDS011;58633;49.470;11.004;2024-02-26T04:38:29;10.57;;;6.00;;
6823;SDS011;58633;49.470;11.004;2024-02-26T04:40:55;12.77;;;6.10;;
6823;SDS011;58633;49.470;11.004;2024-02-26T04:43:20;8.10;;;5.33;;
6823;SDS011;58633;49.470;11.004;2024-02-26T04:45:46;9.20;;;5.53;;
6823;SDS011;58633;49.470;11.004;2024-02-26T04:48:11;8.23;;;5.17;;
6823;SDS011;58633;49.470;11.004;2024-02-26T04:50:37;10.60;;;5.47;;
6823;SDS011;58633;49.470;11.004;2024-02-26T04:53:03;8.83;;;5.23;;
6823;SDS011;58633;49.470;11.004;2024-02-26T04:55:28;9.10;;;5.00;;
6823;SDS011;58633;49.470;11.004;2024-02-26T04:57:54;8.07;;;5.03;;
6823;SDS011;58633;49.470;11.004;2024-02-26T05:00:19;9.07;;;5.60;;
6823;SDS011;58633;49.470;11.004;2024-02-26T05:02:45;9.47;;;4.80;;
6823;SDS011;58633;49.470;11.004;2024-02-26T05:05:11;7.37;;;4.97;;
6823;SDS011;58633;49.470;11.004;2024-02-26T05:07:41;9.37;;;4.80;;
6823;SDS011;58633;49.470;11.004;2024-02-26T05:10:07;10.33;;;5.17;;
6823;SDS011;58633;49.470;11.004;2024-02-26T05:12:33;8.70;;;5.43;;
6823;SDS011;58633;49.470;11.004;2024-02-26T05:15:01;9.93;;;6.13;;
6823;SDS011;58633;49.470;11.004;2024-02-26T05:17:27;9.60;;;5.77;;
6823;SDS011;58633;49.470;11.004;2024-02-26T05:19:53;9.03;;;5.33;;
6823;SDS011;58633;49.470;11.004;2024-02-26T05:22:18;7.90;;;4.90;;
6823;SDS011;58633;49.470;11.004;2024-02-26T05:24:44;8.37;;;5.50;;
6823;SDS011;58633;49.470;11.004;2024-02-26T05:27:09;7.50;;;5.23;;
6823;SDS011;58633;49.470;11.004;2024-02-26T05:29:37;9.10;;;5.27;;
6823;SDS011;58633;49.470;11.004;2024-02-26T05:32:02;14.03;;;5.30;;
6823;SDS011;58633;49.470;11.004;2024-02-26T05:34:29;8.87;;;4.90;;
6823;SDS011;58633;49.470;11.004;2024-02-26T05:36:55;8.93;;;5.57;;
6823;SDS011;58633;49.470;11.004;2024-02-26T05:39:21;7.90;;;4.90;;
6823;SDS011;58633;49.470;11.004;2024-02-26T05:41:46;8.83;;;4.70;;
6823;SDS011;58633;49.470;11.004;2024-02-26T05:44:12;10.27;;;5.43;;
6823;SDS011;58633;49.470;11.004;2024-02-26T05:46:38;10.80;;;4.83;;
6823;SDS011;58633;49.470;11.004;2024-02-26T05:49:03;8.73;;;4.97;;
6823;SDS011;58633;49.470;11.004;2024-02-26T05:51:29;8.67;;;5.50;;
6823;SDS011;58633;49.470;11.004;2024-02-26T05:53:54;8.17;;;4.87;;
6823;SDS011;58633;49.470;11.004;2024-02-26T05:56:23;8.77;;;5.30;;
6823;SDS011;58633;49.470;11.004;2024-02-26T05:58:49;9.50;;;5.77;;
6823;SDS011;58633;49.470;11.004;2024-02-26T06:01:15;9.13;;;5.63;;
6823;SDS011;58633;49.470;11.004;2024-02-26T06:03:42;9.10;;;5.60;;
6823;SDS011;58633;49.470;11.004;2024-02-26T06:06:07;9.20;;;5.23;;
6823;SDS011;58633;49.470;11.004;2024-02-26T06:08:33;10.03;;;6.13;;
6823;SDS011;58633;49.470;11.004;2024-02-26T06:10:58;12.70;;;6.33;;
6823;SDS011;58633;49.470;11.004;2024-02-26T06:13:24;13.93;;;5.97;;
6823;SDS011;58633;49.470;11.004;2024-02-26T06:15:49;7.23;;;5.20;;
6823;SDS011;58633;49.470;11.004;2024-02-26T06:18:15;7.90;;;5.63;;
6823;SDS011;58633;49.470;11.004;2024-02-26T06:20:41;9.10;;;5.60;;
6823;SDS011;58633;49.470;11.004;2024-02-26T06:23:06;9.63;;;5.50;;
6823;SDS011;58633;49.470;11.004;2024-02-26T06:25:32;10.43;;;5.77;;
6823;SDS011;58633;49.470;11.004;2024-02-26T06:27:57;11.87;;;5.93;;
6823;SDS011;58633;49.470;11.004;2024-02-26T06:30:23;10.87;;;5.83;;
6823;SDS011;58633;49.470;11.004;2024-02-26T06:32:49;10.57;;;5.70;;
6823;SDS011;58633;49.470;11.004;2024-02-26T06:35:14;13.00;;;5.20;;
6823;SDS011;58633;49.470;11.004;2024-02-26T06:37:40;11.63;;;4.93;;
6823;SDS011;58633;49.470;11.004;2024-02-26T06:40:08;14.43;;;4.83;;
6823;SDS011;58633;49.470;11.004;2024-02-26T06:42:34;6.87;;;4.30;;
6823;SDS011;58633;49.470;11.004;2024-02-26T06:45:00;7.53;;;4.60;;
6823;SDS011;58633;49.470;11.004;2024-02-26T06:47:26;8.50;;;4.40;;
6823;SDS011;58633;49.470;11.004;2024-02-26T06:49:52;7.63;;;4.73;;
6823;SDS011;58633;49.470;11.004;2024-02-26T06:52:17;8.60;;;4.60;;
6823;SDS011;58633;49.470;11.004;2024-02-26T06:54:43;8.57;;;4.40;;
6823;SDS011;58633;49.470;11.004;2024-02-26T06:57:09;10.57;;;5.13;;
6823;SDS011;58633;49.470;11.004;2024-02-26T06:59:35;9.10;;;5.00;;
6823;SDS011;58633;49.470;11.004;2024-02-26T07:02:00;7.73;;;5.07;;
6823;SDS011;58633;49.470;11.004;2024-02-26T07:04:26;6.83;;;4.20;;
6823;SDS011;58633;49.470;11.004;2024-02-26T07:06:51;7.03;;;4.17;;
6823;SDS011;58633;49.470;11.004;2024-02-26T07:09:17;6.07;;;4.00;;
6823;SDS011;58633;49.470;11.004;2024-02-26T07:11:42;6.50;;;4.17;;
6823;SDS011;58633;49.470;11.004;2024-02-26T07:14:08;7.67;;;3.80;;
6823;SDS011;58633;49.470;11.004;2024-02-26T07:16:35;6.60;;;3.80;;
6823;SDS011;58633;49.470;11.004;2024-02-26T07:19:00;5.93;;;3.90;;
6823;SDS011;58633;49.470;11.004;2024-02-26T07:21:26;6.97;;;4.23;;
6823;SDS011;58633;49.470;11.004;2024-02-26T07:23:51;10.33;;;4.30;;
6823;SDS011;58633;49.470;11.004;2024-02-26T07:26:17;7.50;;;3.87;;
6823;SDS011;58633;49.470;11.004;2024-02-26T07:28:44;8.83;;;4.60;;
6823;SDS011;58633;49.470;11.004;2024-02-26T07:31:10;8.17;;;3.83;;
6823;SDS011;58633;49.470;11.004;2024-02-26T07:33:35;10.10;;;3.93;;
6823;SDS011;58633;49.470;11.004;2024-02-26T07:36:01;7.73;;;3.97;;
6823;SDS011;58633;49.470;11.004;2024-02-26T07:38:27;6.63;;;4.17;;
6823;SDS011;58633;49.470;11.004;2024-02-26T07:40:52;7.10;;;3.93;;
6823;SDS011;58633;49.470;11.004;2024-02-26T07:43:18;8.93;;;4.07;;
6823;SDS011;58633;49.470;11.004;2024-02-26T07:45:43;7.77;;;4.00;;
6823;SDS011;58633;49.470;11.004;2024-02-26T07:48:09;7.83;;;3.70;;
6823;SDS011;58633;49.470;11.004;2024-02-26T07:50:34;5.33;;;3.53;;
6823;SDS011;58633;49.470;11.004;2024-02-26T07:53:00;6.00;;;3.60;;
6823;SDS011;58633;49.470;11.004;2024-02-26T07:55:25;4.80;;;3.30;;
6823;SDS011;58633;49.470;11.004;2024-02-26T07:57:51;6.57;;;3.30;;
6823;SDS011;58633;49.470;11.004;2024-02-26T08:00:17;6.40;;;3.47;;
6823;SDS011;58633;49.470;11.004;2024-02-26T08:02:43;5.17;;;3.00;;
6823;SDS011;58633;49.470;11.004;2024-02-26T08:05:09;8.57;;;3.37;;
6823;SDS011;58633;49.470;11.004;2024-02-26T08:07:34;6.10;;;3.20;;
6823;SDS011;58633;49.470;11.004;2024-02-26T08:10:00;7.27;;;3.47;;
6823;SDS011;58633;49.470;11.004;2024-02-26T08:12:25;5.70;;;3.30;;
6823;SDS011;58633;49.470;11.004;2024-02-26T08:14:51;7.30;;;3.33;;
6823;SDS011;58633;49.470;11.004;2024-02-26T08:17:16;7.23;;;3.60;;
6823;SDS011;58633;49.470;11.004;2024-02-26T08:19:42;4.90;;;3.67;;
6823;SDS011;58633;49.470;11.004;2024-02-26T08:22:07;3.93;;;3.50;;
6823;SDS011;58633;49.470;11.004;2024-02-26T08:24:35;6.40;;;3.53;;
6823;SDS011;58633;49.470;11.004;2024-02-26T08:27:00;6.30;;;3.47;;
6823;SDS011;58633;49.470;11.004;2024-02-26T08:29:26;6.03;;;3.57;;
6823;SDS011;58633;49.470;11.004;2024-02-26T08:31:51;7.70;;;3.57;;
6823;SDS011;58633;49.470;11.004;2024-02-26T08:34:17;6.67;;;3.50;;
6823;SDS011;58633;49.470;11.004;2024-02-26T08:36:43;8.30;;;3.50;;
6823;SDS011;58633;49.470;11.004;2024-02-26T08:39:09;7.97;;;3.40;;
6823;SDS011;58633;49.470;11.004;2024-02-26T08:41:35;6.57;;;3.17;;
6823;SDS011;58633;49.470;11.004;2024-02-26T08:44:01;5.03;;;3.20;;
6823;SDS011;58633;49.470;11.004;2024-02-26T08:46:26;4.03;;;3.50;;
6823;SDS011;58633;49.470;11.004;2024-02-26T08:48:52;6.70;;;3.23;;
6823;SDS011;58633;49.470;11.004;2024-02-26T08:51:17;7.07;;;3.07;;
6823;SDS011;58633;49.470;11.004;2024-02-26T08:53:43;9.40;;;3.53;;
6823;SDS011;58633;49.470;11.004;2024-02-26T08:56:08;5.47;;;3.77;;
6823;SDS011;58633;49.470;11.004;2024-02-26T08:58:34;4.27;;;3.13;;
6823;SDS011;58633;49.470;11.004;2024-02-26T09:00:59;5.63;;;3.80;;
6823;SDS011;58633;49.470;11.004;2024-02-26T09:03:24;5.87;;;3.07;;
6823;SDS011;58633;49.470;11.004;2024-02-26T09:05:51;4.83;;;3.30;;
6823;SDS011;58633;49.470;11.004;2024-02-26T09:08:17;7.17;;;3.40;;
6823;SDS011;58633;49.470;11.004;2024-02-26T09:10:42;4.10;;;3.03;;
6823;SDS011;58633;49.470;11.004;2024-02-26T09:13:08;9.30;;;3.57;;
6823;SDS011;58633;49.470;11.004;2024-02-26T09:15:33;5.40;;;3.37;;
6823;SDS011;58633;49.470;11.004;2024-02-26T09:17:59;5.77;;;3.30;;
6823;SDS011;58633;49.470;11.004;2024-02-26T09:20:24;4.57;;;3.10;;
6823;SDS011;58633;49.470;11.004;2024-02-26T09:22:50;4.40;;;3.13;;
6823;SDS011;58633;49.470;11.004;2024-02-26T09:25:16;5.13;;;2.97;;
6823;SDS011;58633;49.470;11.004;2024-02-26T09:27:42;6.07;;;2.97;;
6823;SDS011;58633;49.470;11.004;2024-02-26T09:30:09;6.47;;;3.33;;
6823;SDS011;58633;49.470;11.004;2024-02-26T09:32:38;6.60;;;3.83;;
6823;SDS011;58633;49.470;11.004;2024-02-26T09:35:04;4.83;;;3.37;;
6823;SDS011;58633;49.470;11.004;2024-02-26T09:37:31;5.83;;;3.50;;
6823;SDS011;58633;49.470;11.004;2024-02-26T09:39:56;6.07;;;3.43;;
6823;SDS011;58633;49.470;11.004;2024-02-26T09:42:24;6.10;;;3.60;;
6823;SDS011;58633;49.470;11.004;2024-02-26T09:44:51;5.47;;;3.40;;
6823;SDS011;58633;49.470;11.004;2024-02-26T09:47:19;9.10;;;4.10;;
6823;SDS011;58633;49.470;11.004;2024-02-26T09:49:47;5.50;;;3.50;;
6823;SDS011;58633;49.470;11.004;2024-02-26T09:52:16;5.93;;;3.13;;
6823;SDS011;58633;49.470;11.004;2024-02-26T09:54:48;5.47;;;3.17;;
6823;SDS011;58633;49.470;11.004;2024-02-26T09:57:13;5.90;;;3.53;;
6823;SDS011;58633;49.470;11.004;2024-02-26T09:59:42;4.63;;;3.30;;
6823;SDS011;58633;49.470;11.004;2024-02-26T10:02:08;4.50;;;2.93;;
6823;SDS011;58633;49.470;11.004;2024-02-26T10:04:36;4.67;;;3.50;;
6823;SDS011;58633;49.470;11.004;2024-02-26T10:07:04;5.07;;;2.93;;
6823;SDS011;58633;49.470;11.004;2024-02-26T10:09:34;5.67;;;2.87;;
6823;SDS011;58633;49.470;11.004;2024-02-26T10:12:00;4.50;;;3.13;;
6823;SDS011;58633;49.470;11.004;2024-02-26T10:14:26;5.10;;;3.07;;
6823;SDS011;58633;49.470;11.004;2024-02-26T10:16:51;4.25;;;3.00;;
6823;SDS011;58633;49.470;11.004;2024-02-26T10:19:24;4.63;;;3.00;;
6823;SDS011;58633;49.470;11.004;2024-02-26T10:21:56;5.47;;;2.97;;
6823;SDS011;58633;49.470;11.004;2024-02-26T10:24:22;4.38;;;3.05;;
6823;SDS011;58633;49.470;11.004;2024-02-26T10:26:48;4.47;;;3.05;;
6823;SDS011;58633;49.470;11.004;2024-02-26T10:29:14;4.40;;;3.25;;
6823;SDS011;58633;49.470;11.004;2024-02-26T10:31:43;4.57;;;2.88;;
6823;SDS011;58633;49.470;11.004;2024-02-26T10:34:08;5.68;;;3.08;;
6823;SDS011;58633;49.470;11.004;2024-02-26T10:36:34;5.10;;;3.00;;
6823;SDS011;58633;49.470;11.004;2024-02-26T10:39:09;3.88;;;3.15;;
6823;SDS011;58633;49.470;11.004;2024-02-26T10:41:36;3.90;;;3.45;;
6823;SDS011;58633;49.470;11.004;2024-02-26T10:44:02;3.72;;;2.92;;
6823;SDS011;58633;49.470;11.004;2024-02-26T10:46:28;4.28;;;3.25;;
6823;SDS011;58633;49.470;11.004;2024-02-26T10:48:54;5.53;;;3.30;;
6823;SDS011;58633;49.470;11.004;2024-02-26T10:51:22;9.15;;;3.30;;
6823;SDS011;58633;49.470;11.004;2024-02-26T10:53:55;4.15;;;2.88;;
6823;SDS011;58633;49.470;11.004;2024-02-26T10:56:29;5.90;;;3.35;;
6823;SDS011;58633;49.470;11.004;2024-02-26T10:58:58;4.47;;;3.30;;
6823;SDS011;58633;49.470;11.004;2024-02-26T11:01:24;5.38;;;3.05;;
6823;SDS011;58633;49.470;11.004;2024-02-26T11:03:51;7.75;;;3.25;;
6823;SDS011;58633;49.470;11.004;2024-02-26T11:06:18;6.97;;;3.50;;
6823;SDS011;58633;49.470;11.004;2024-02-26T11:08:47;3.40;;;3.03;;
6823;SDS011;58633;49.470;11.004;2024-02-26T11:11:14;4.35;;;3.05;;
6823;SDS011;58633;49.470;11.004;2024-02-26T11:13:40;5.75;;;3.80;;
6823;SDS011;58633;49.470;11.004;2024-02-26T11:16:10;5.97;;;3.28;;
6823;SDS011;58633;49.470;11.004;2024-02-26T11:18:37;6.05;;;2.97;;
6823;SDS011;58633;49.470;11.004;2024-02-26T11:21:04;5.25;;;3.35;;
6823;SDS011;58633;49.470;11.004;2024-02-26T11:23:33;2.90;;;2.33;;
6823;SDS011;58633;49.470;11.004;2024-02-26T11:26:01;3.38;;;2.45;;
6823;SDS011;58633;49.470;11.004;2024-02-26T11:28:29;4.15;;;2.90;;
6823;SDS011;58633;49.470;11.004;2024-02-26T11:30:56;6.47;;;2.78;;
6823;SDS011;58633;49.470;11.004;2024-02-26T11:33:24;2.50;;;2.30;;
6823;SDS011;58633;49.470;11.004;2024-02-26T11:35:50;4.28;;;2.28;;
6823;SDS011;58633;49.470;11.004;2024-02-26T11:38:23;3.08;;;2.38;;
6823;SDS011;58633;49.470;11.004;2024-02-26T11:40:51;2.95;;;2.40;;
6823;SDS011;58633;49.470;11.004;2024-02-26T11:43:18;5.22;;;2.20;;
6823;SDS011;58633;49.470;11.004;2024-02-26T11:45:48;3.72;;;2.47;;
6823;SDS011;58633;49.470;11.004;2024-02-26T11:48:19;6.22;;;2.45;;
6823;SDS011;58633;49.470;11.004;2024-02-26T11:50:47;5.10;;;2.63;;
6823;SDS011;58633;49.470;11.004;2024-02-26T11:55:46;3.10;;;2.50;;
6823;SDS011;58633;49.470;11.004;2024-02-26T11:58:12;3.40;;;2.10;;
6823;SDS011;58633;49.470;11.004;2024-02-26T12:00:39;4.85;;;2.42;;
6823;SDS011;58633;49.470;11.004;2024-02-26T12:03:05;2.92;;;2.20;;
6823;SDS011;58633;49.470;11.004;2024-02-26T12:05:33;2.58;;;2.38;;
6823;SDS011;58633;49.470;11.004;2024-02-26T12:08:05;2.60;;;2.20;;
6823;SDS011;58633;49.470;11.004;2024-02-26T12:10:33;3.30;;;2.00;;
6823;SDS011;58633;49.470;11.004;2024-02-26T12:13:02;6.30;;;3.20;;
6823;SDS011;58633;49.470;11.004;2024-02-26T12:15:59;3.70;;;2.30;;
6823;SDS011;58633;49.470;11.004;2024-02-26T12:18:24;3.45;;;2.78;;
6823;SDS011;58633;49.470;11.004;2024-02-26T12:20:59;4.38;;;2.47;;
6823;SDS011;58633;49.470;11.004;2024-02-26T12:23:28;4.82;;;3.17;;
6823;SDS011;58633;49.470;11.004;2024-02-26T12:25:58;3.17;;;2.45;;
6823;SDS011;58633;49.470;11.004;2024-02-26T12:28:28;5.38;;;3.00;;
6823;SDS011;58633;49.470;11.004;2024-02-26T12:30:54;4.10;;;2.58;;
6823;SDS011;58633;49.470;11.004;2024-02-26T12:33:20;4.18;;;2.45;;
6823;SDS011;58633;49.470;11.004;2024-02-26T12:35:45;3.45;;;2.50;;
6823;SDS011;58633;49.470;11.004;2024-02-26T12:38:14;4.95;;;2.72;;
6823;SDS011;58633;49.470;11.004;2024-02-26T12:40:39;3.38;;;2.60;;
6823;SDS011;58633;49.470;11.004;2024-02-26T12:43:05;2.42;;;2.17;;
6823;SDS011;58633;49.470;11.004;2024-02-26T12:45:37;3.38;;;2.47;;
6823;SDS011;58633;49.470;11.004;2024-02-26T12:48:05;2.75;;;2.42;;
6823;SDS011;58633;49.470;11.004;2024-02-26T12:50:31;2.40;;;2.17;;
6823;SDS011;58633;49.470;11.004;2024-02-26T12:52:57;4.03;;;2.10;;
6823;SDS011;58633;49.470;11.004;2024-02-26T12:55:23;2.83;;;2.30;;
6823;SDS011;58633;49.470;11.004;2024-02-26T12:57:50;8.18;;;2.70;;
6823;SDS011;58633;49.470;11.004;2024-02-26T13:00:18;3.08;;;2.03;;
6823;SDS011;58633;49.470;11.004;2024-02-26T13:02:49;3.08;;;2.45;;
6823;SDS011;58633;49.470;11.004;2024-02-26T13:05:15;2.80;;;2.40;;
6823;SDS011;58633;49.470;11.004;2024-02-26T13:07:42;2.60;;;2.28;;
6823;SDS011;58633;49.470;11.004;2024-02-26T13:10:09;2.92;;;2.45;;
6823;SDS011;58633;49.470;11.004;2024-02-26T13:12:37;2.83;;;2.40;;
6823;SDS011;58633;49.470;11.004;2024-02-26T13:15:07;3.22;;;2.13;;
6823;SDS011;58633;49.470;11.004;2024-02-26T13:17:38;3.72;;;2.10;;
6823;SDS011;58633;49.470;11.004;2024-02-26T13:20:04;2.10;;;2.00;;
6823;SDS011;58633;49.470;11.004;2024-02-26T13:22:30;2.83;;;2.03;;
6823;SDS011;58633;49.470;11.004;2024-02-26T13:24:58;2.13;;;1.90;;
6823;SDS011;58633;49.470;11.004;2024-02-26T13:27:24;2.33;;;1.88;;
6823;SDS011;58633;49.470;11.004;2024-02-26T13:30:12;2.33;;;1.90;;
6823;SDS011;58633;49.470;11.004;2024-02-26T13:32:37;2.85;;;1.80;;
6823;SDS011;58633;49.470;11.004;2024-02-26T13:35:05;2.25;;;2.03;;
6823;SDS011;58633;49.470;11.004;2024-02-26T13:37:34;4.40;;;1.73;;
6823;SDS011;58633;49.470;11.004;2024-02-26T13:40:00;1.83;;;1.33;;
6823;SDS011;58633;49.470;11.004;2024-02-26T13:42:33;1.80;;;1.70;;
6823;SDS011;58633;49.470;11.004;2024-02-26T13:44:59;1.60;;;1.50;;
6823;SDS011;58633;49.470;11.004;2024-02-26T13:47:25;2.60;;;1.67;;
6823;SDS011;58633;49.470;11.004;2024-02-26T13:49:50;2.30;;;1.40;;
6823;SDS011;58633;49.470;11.004;2024-02-26T13:52:16;1.83;;;1.50;;
6823;SDS011;58633;49.470;11.004;2024-02-26T13:54:41;1.67;;;1.40;;
6823;SDS011;58633;49.470;11.004;2024-02-26T13:57:07;1.55;;;1.42;;
6823;SDS011;58633;49.470;11.004;2024-02-26T13:59:33;2.25;;;2.05;;
6823;SDS011;58633;49.470;11.004;2024-02-26T14:01:59;1.73;;;1.58;;
6823;SDS011;58633;49.470;11.004;2024-02-26T14:04:25;1.98;;;1.20;;
6823;SDS011;58633;49.470;11.004;2024-02-26T14:06:50;1.50;;;1.40;;
6823;SDS011;58633;49.470;11.004;2024-02-26T14:09:16;1.55;;;1.45;;
6823;SDS011;58633;49.470;11.004;2024-02-26T14:11:44;1.15;;;1.13;;
6823;SDS011;58633;49.470;11.004;2024-02-26T14:14:10;3.88;;;1.40;;
6823;SDS011;58633;49.470;11.004;2024-02-26T14:16:36;3.00;;;1.50;;
6823;SDS011;58633;49.470;11.004;2024-02-26T14:19:01;1.95;;;1.50;;
6823;SDS011;58633;49.470;11.004;2024-02-26T14:21:27;2.97;;;1.50;;
6823;SDS011;58633;49.470;11.004;2024-02-26T14:23:54;1.50;;;1.40;;
6823;SDS011;58633;49.470;11.004;2024-02-26T14:26:20;2.00;;;1.50;;
6823;SDS011;58633;49.470;11.004;2024-02-26T14:28:47;1.60;;;1.25;;
6823;SDS011;58633;49.470;11.004;2024-02-26T14:31:12;1.23;;;1.17;;
6823;SDS011;58633;49.470;11.004;2024-02-26T14:33:38;3.67;;;1.45;;
6823;SDS011;58633;49.470;11.004;2024-02-26T14:36:06;1.50;;;1.40;;
6823;SDS011;58633;49.470;11.004;2024-02-26T14:38:32;6.20;;;2.30;;
6823;SDS011;58633;49.470;11.004;2024-02-26T14:40:57;4.38;;;2.17;;
6823;SDS011;58633;49.470;11.004;2024-02-26T14:43:23;10.68;;;1.92;;